Time;durP1;ratioP1;P1;durP2;ratioP2;P2;SDS_P1;SDS_P2;PMS_P1;PMS_P2;Temp;Humidity;BMP_temperature;BMP_pressure;BME280_temperature;BME280_humidity;BME280_pressure;Samples;Min_cycle;Max_cycle;Signal;HPM_P1;HPM_P2
2022/05/07 00:01:11;;;;;;;;;6.33;5.00;;;;;34.12;19.31;101907.84;5058063;28;45259;-84
2022/05/07 00:03:37;;;;;;;;;5.00;5.00;;;;;34.43;19.30;101955.53;5058162;28;45802;-84
2022/05/07 00:06:02;;;;;;;;;5.00;5.00;;;;;34.35;19.27;101941.34;5058686;28;45501;-84
2022/05/07 00:08:28;;;;;;;;;9.00;7.67;;;;;34.10;19.30;101912.56;5058122;28;46465;-84
2022/05/07 00:10:53;;;;;;;;;9.00;6.00;;;;;34.06;19.08;101930.25;5058189;28;45429;-83
2022/05/07 00:13:18;;;;;;;;;6.33;6.00;;;;;34.09;19.19;101910.78;5057019;28;45379;-84
2022/05/07 00:18:01;;;;;;;;;4.00;4.00;;;;;34.03;18.85;101936.81;5057669;28;45363;-83
2022/05/07 00:18:30;;;;;;;;;5.00;4.00;;;;;33.94;18.90;101953.94;5058022;28;46016;-84
2022/05/07 00:20:55;;;;;;;;;8.00;5.00;;;;;33.79;18.99;101924.59;5057838;28;45512;-84
2022/05/07 00:23:20;;;;;;;;;4.67;3.67;;;;;33.87;18.80;101936.03;5058386;28;45442;-84
2022/05/07 00:25:46;;;;;;;;;4.00;4.00;;;;;33.87;18.75;101927.75;5057885;28;45530;-83
2022/05/07 00:28:11;;;;;;;;;3.33;3.33;;;;;33.89;18.88;101909.28;5073563;28;45614;-84
2022/05/07 00:30:36;;;;;;;;;6.00;6.00;;;;;33.98;18.86;101929.84;5077877;27;45354;-84
2022/05/07 00:33:02;;;;;;;;;6.00;6.00;;;;;34.08;18.97;101941.16;5074487;27;45744;-84
2022/05/07 00:35:27;;;;;;;;;3.33;3.33;;;;;34.02;18.78;101918.56;5062406;28;45322;-84
2022/05/07 00:37:53;;;;;;;;;5.33;5.00;;;;;34.01;18.95;101933.28;5071914;28;46434;-84
2022/05/07 00:40:18;;;;;;;;;5.67;5.67;;;;;34.03;19.26;101936.81;5078340;27;45425;-83
2022/05/07 00:42:43;;;;;;;;;7.33;4.00;;;;;34.02;18.69;101923.16;5078277;27;45643;-84
2022/05/07 00:45:09;;;;;;;;;4.33;3.67;;;;;34.02;18.74;101924.06;5068897;27;45508;-83
2022/05/07 00:47:34;;;;;;;;;4.67;4.67;;;;;34.07;19.14;101944.91;5060582;28;46297;-83
2022/05/07 00:52:46;;;;;;;;;5.67;5.67;;;;;33.95;19.17;101921.78;5062039;28;45459;-84
2022/05/07 00:55:12;;;;;;;;;5.00;5.00;;;;;33.64;19.55;101916.25;5060977;28;45669;-84
2022/05/07 00:57:38;;;;;;;;;5.00;5.00;;;;;33.55;19.75;101893.91;5066612;27;45515;-84
2022/05/07 01:00:05;;;;;;;;;6.00;6.00;;;;;33.62;19.84;101914.56;5057166;28;45386;-83
2022/05/07 01:02:31;;;;;;;;;6.33;6.33;;;;;33.54;20.01;101926.03;5057051;28;45358;-84
2022/05/07 01:04:56;;;;;;;;;6.67;6.00;;;;;33.51;20.17;101913.34;5074590;28;45676;-84
2022/05/07 01:07:22;;;;;;;;;5.00;5.00;;;;;33.48;20.03;101908.03;5077642;27;46263;-84
2022/05/07 01:09:49;;;;;;;;;6.00;5.33;;;;;33.61;20.14;101924.66;5076251;28;45933;-84
2022/05/07 01:12:15;;;;;;;;;6.33;6.33;;;;;33.55;20.18;101932.44;5072396;27;45231;-83
2022/05/07 01:14:40;;;;;;;;;7.00;7.00;;;;;33.43;19.95;101881.75;5055706;28;45701;-84
2022/05/07 01:17:07;;;;;;;;;4.67;4.67;;;;;33.44;19.64;101883.53;5058157;28;45235;-84
2022/05/07 01:19:32;;;;;;;;;7.00;6.00;;;;;33.64;20.31;101918.09;5055798;28;45328;-84
2022/05/07 01:21:57;;;;;;;;;6.67;6.67;;;;;33.33;20.15;101896.09;5073505;28;45184;-83
2022/05/07 01:24:23;;;;;;;;;5.67;4.67;;;;;33.20;20.63;101892.25;5072946;27;45410;-83
2022/05/07 01:26:48;;;;;;;;;7.00;7.00;;;;;33.34;20.63;101918.97;5064340;28;45545;-83
2022/05/07 01:29:13;;;;;;;;;9.00;6.67;;;;;33.46;20.57;101932.00;5077268;27;45512;-82
2022/05/07 01:31:39;;;;;;;;;7.00;6.00;;;;;33.34;20.46;101899.72;5075775;28;45484;-83
2022/05/07 01:34:05;;;;;;;;;8.00;7.00;;;;;33.49;20.45;101908.94;5074981;28;45583;-83
2022/05/07 01:36:30;;;;;;;;;8.00;8.00;;;;;33.38;20.07;101903.19;5075743;28;47530;-84
2022/05/07 01:38:55;;;;;;;;;7.00;7.00;;;;;33.49;20.48;101922.69;5075892;27;45521;-83
2022/05/07 01:41:21;;;;;;;;;7.33;7.00;;;;;33.35;20.68;101896.00;5075492;28;45525;-83
2022/05/07 01:43:46;;;;;;;;;9.00;8.67;;;;;33.20;20.67;101885.88;5062404;28;45524;-84
2022/05/07 01:48:55;;;;;;;;;8.00;8.00;;;;;33.47;20.35;101928.28;5060782;28;45575;-84
2022/05/07 01:51:21;;;;;;;;;6.00;6.00;;;;;33.37;20.11;101931.66;5061397;28;45490;-84
2022/05/07 01:53:46;;;;;;;;;7.00;6.67;;;;;33.26;20.17;101908.41;5054890;28;46496;-84
2022/05/07 01:56:12;;;;;;;;;7.00;7.00;;;;;33.39;20.13;101913.19;5057683;28;45492;-84
2022/05/07 01:58:38;;;;;;;;;5.00;5.00;;;;;33.42;20.49;101924.91;5067779;27;45538;-84
2022/05/07 02:01:03;;;;;;;;;9.33;7.67;;;;;33.18;20.60;101886.84;5054925;28;45413;-83
2022/05/07 02:03:28;;;;;;;;;6.00;6.00;;;;;33.31;20.42;101905.41;5063396;28;45328;-84
2022/05/07 02:05:55;;;;;;;;;8.67;8.33;;;;;33.10;20.62;101869.03;5073592;28;47550;-84
2022/05/07 02:08:20;;;;;;;;;9.33;7.33;;;;;33.30;20.37;101928.38;5075273;28;45699;-84
2022/05/07 02:10:46;;;;;;;;;7.33;7.33;;;;;33.27;20.59;101923.94;5073681;28;45502;-84
2022/05/07 02:13:11;;;;;;;;;9.00;9.00;;;;;33.00;20.77;101886.03;5063339;27;45588;-83
2022/05/07 02:15:36;;;;;;;;;8.67;8.00;;;;;33.21;20.55;101916.03;5055027;28;47909;-84
2022/05/07 02:18:02;;;;;;;;;8.00;8.00;;;;;32.98;20.93;101876.09;5056075;28;45442;-84
2022/05/07 02:20:27;;;;;;;;;12.00;11.67;;;;;33.06;20.44;101894.91;5062116;28;45941;-84
2022/05/07 02:22:57;;;;;;;;;10.33;10.33;;;;;32.90;20.65;101892.16;5066699;27;45421;-83
2022/05/07 02:25:23;;;;;;;;;11.33;11.33;;;;;33.01;21.10;101906.19;5054694;28;47343;-84
2022/05/07 02:27:48;;;;;;;;;16.00;13.00;;;;;32.75;21.07;101871.94;5054735;28;45885;-84
2022/05/07 02:30:14;;;;;;;;;20.67;18.67;;;;;32.91;20.66;101922.34;5054838;28;45255;-85
2022/05/07 02:32:39;;;;;;;;;17.67;16.00;;;;;32.55;21.13;101862.06;5056465;28;45351;-84
2022/05/07 02:35:05;;;;;;;;;25.00;20.00;;;;;32.79;20.76;101877.19;5069148;28;45596;-85
2022/05/07 02:37:30;;;;;;;;;23.00;21.67;;;;;32.78;20.76;101883.63;5073644;28;45403;-85
2022/05/07 02:39:55;;;;;;;;;21.00;16.67;;;;;32.81;20.89;101896.31;5076239;27;45381;-83
2022/05/07 02:45:06;;;;;;;;;21.00;19.00;;;;;32.89;21.20;101896.78;5066689;28;45744;-84
2022/05/07 02:47:34;;;;;;;;;19.33;18.00;;;;;32.74;21.02;101890.31;5055639;28;45364;-84
2022/05/07 02:50:00;;;;;;;;;18.00;15.33;;;;;32.79;20.78;101910.16;5055836;28;45399;-84
2022/05/07 02:52:25;;;;;;;;;17.67;15.67;;;;;32.49;20.98;101855.06;5056266;28;45588;-84
2022/05/07 02:54:50;;;;;;;;;12.67;11.33;;;;;32.28;21.22;101822.31;5060902;28;46177;-84
2022/05/07 02:57:16;;;;;;;;;10.67;10.67;;;;;32.62;21.09;101885.47;5054880;28;45454;-84
2022/05/07 02:59:41;;;;;;;;;13.00;9.00;;;;;32.57;20.77;101890.31;5076059;27;45523;-84
2022/05/07 03:02:07;;;;;;;;;9.00;8.00;;;;;32.59;20.84;101915.88;5091580;27;45557;-84
2022/05/07 03:04:33;;;;;;;;;10.00;10.00;;;;;32.38;21.23;101887.75;5075881;27;45498;-83
2022/05/07 03:06:59;;;;;;;;;10.00;9.33;;;;;32.36;21.06;101912.50;5091411;27;46076;-84
2022/05/07 03:09:24;;;;;;;;;12.33;9.00;;;;;32.17;21.73;101865.06;5071969;28;45372;-84
2022/05/07 03:11:49;;;;;;;;;8.00;8.00;;;;;32.43;21.20;101908.47;5054506;28;45271;-84
2022/05/07 03:14:15;;;;;;;;;11.00;8.33;;;;;32.20;21.46;101852.06;5069433;28;47731;-84
2022/05/07 03:16:40;;;;;;;;;11.33;8.00;;;;;32.25;21.41;101879.25;5063143;28;45310;-83
2022/05/07 03:19:07;;;;;;;;;10.00;10.00;;;;;32.19;21.80;101887.84;5091318;27;45300;-83
2022/05/07 03:21:32;;;;;;;;;10.33;9.00;;;;;32.00;21.24;101855.88;5066339;27;45437;-83
2022/05/07 03:23:57;;;;;;;;;10.33;9.00;;;;;32.08;21.20;101858.19;5087412;27;47367;-83
2022/05/07 03:26:23;;;;;;;;;9.00;8.67;;;;;32.19;21.67;101872.25;5074539;27;45401;-84
2022/05/07 03:28:48;;;;;;;;;10.67;9.00;;;;;32.29;21.14;101895.50;5058555;28;45476;-83
2022/05/07 03:31:14;;;;;;;;;10.00;10.00;;;;;32.18;21.75;101894.31;5070072;28;45553;-83
2022/05/07 03:33:39;;;;;;;;;10.67;9.67;;;;;31.86;22.24;101839.28;5063131;28;45700;-84
2022/05/07 03:36:05;;;;;;;;;9.33;9.33;;;;;31.96;21.62;101881.72;5056230;28;45411;-83
2022/05/07 03:38:31;;;;;;;;;9.67;8.33;;;;;31.76;22.30;101886.41;5055103;28;45611;-82
2022/05/07 03:40:56;;;;;;;;;9.00;9.00;;;;;31.67;22.19;101855.81;5055588;28;45378;-83
2022/05/07 03:43:22;;;;;;;;;12.00;11.67;;;;;31.84;21.79;101871.38;5063963;28;45413;-83
2022/05/07 03:45:47;;;;;;;;;10.67;9.67;;;;;32.11;21.69;101901.94;5072658;27;45470;-82
2022/05/07 03:48:12;;;;;;;;;9.67;9.00;;;;;31.80;21.84;101856.94;5074945;27;45804;-81
2022/05/07 03:50:38;;;;;;;;;9.00;9.00;;;;;32.17;21.93;101895.25;5075484;27;45435;-81
2022/05/07 03:55:47;;;;;;;;;13.00;11.33;;;;;32.08;21.66;101869.16;5067707;28;45634;-83
2022/05/07 03:58:17;;;;;;;;;11.33;11.33;;;;;32.18;22.15;101902.53;5069919;27;45824;-82
2022/05/07 04:00:43;;;;;;;;;8.00;8.00;;;;;32.00;21.82;101883.31;5071728;28;45476;-83
2022/05/07 04:03:12;;;;;;;;;12.67;11.67;;;;;31.96;22.25;101881.72;5073292;28;47195;-82
2022/05/07 04:05:38;;;;;;;;;15.00;12.00;;;;;31.96;22.40;101888.06;5074985;28;45394;-83
2022/05/07 04:08:04;;;;;;;;;11.67;10.00;;;;;31.67;22.35;101881.38;5067192;28;45399;-82
2022/05/07 04:10:30;;;;;;;;;11.67;10.00;;;;;31.73;22.21;101886.56;5073537;27;45307;-82
2022/05/07 04:12:55;;;;;;;;;17.67;12.33;;;;;31.82;22.41;101874.22;5064513;27;46183;-83
2022/05/07 04:15:21;;;;;;;;;15.33;12.33;;;;;31.83;22.48;101897.94;5067424;28;45542;-83
2022/05/07 04:17:48;;;;;;;;;13.67;10.33;;;;;31.87;22.41;101865.72;5073527;28;45452;-82
2022/05/07 04:20:13;;;;;;;;;11.67;11.67;;;;;31.99;21.88;101879.66;5074575;27;45393;-83
2022/05/07 04:22:39;;;;;;;;;13.33;12.33;;;;;32.04;22.16;101892.25;5073385;27;46565;-83
2022/05/07 04:25:07;;;;;;;;;12.33;12.33;;;;;32.00;22.30;101908.03;5067029;27;45429;-83
2022/05/07 04:27:32;;;;;;;;;12.33;10.67;;;;;31.78;22.48;101889.06;5054481;28;45414;-79
2022/05/07 04:29:57;;;;;;;;;12.33;12.33;;;;;31.84;22.69;101888.72;5056397;28;45450;-79
2022/05/07 04:32:26;;;;;;;;;14.33;12.33;;;;;31.77;22.38;101873.56;5069602;28;45526;-80
2022/05/07 04:34:52;;;;;;;;;10.00;9.33;;;;;31.96;23.00;101904.53;5075758;28;45279;-80
2022/05/07 04:37:18;;;;;;;;;9.67;9.67;;;;;31.85;22.88;101885.03;5064880;27;45336;-81
2022/05/07 04:39:43;;;;;;;;;8.00;8.00;;;;;31.80;22.58;101888.03;5057971;28;45324;-81
2022/05/07 04:42:09;;;;;;;;;10.67;9.00;;;;;31.74;22.73;101844.44;5057789;28;45566;-80
2022/05/07 04:44:34;;;;;;;;;11.67;11.00;;;;;31.99;22.49;101881.53;5057669;28;45611;-81
2022/05/07 04:47:00;;;;;;;;;13.33;11.33;;;;;31.88;22.69;101882.09;5057514;28;45644;-82
2022/05/07 04:49:25;;;;;;;;;12.67;12.33;;;;;31.86;22.52;101867.59;5057694;28;45531;-82
2022/05/07 04:51:51;;;;;;;;;16.67;11.33;;;;;31.84;22.50;101890.59;5057296;28;45547;-86
2022/05/07 04:54:20;;;;;;;;;11.67;11.00;;;;;31.74;23.42;101910.28;5066456;28;45548;-86
2022/05/07 04:56:51;;;;;;;;;12.00;10.33;;;;;31.52;23.11;101862.94;5077031;28;45415;-85
2022/05/07 04:59:17;;;;;;;;;12.00;9.67;;;;;31.51;23.49;101880.41;5078053;27;45291;-78
2022/05/07 05:01:43;;;;;;;;;16.00;14.00;;;;;31.60;23.37;101902.78;5088323;27;48231;-82
2022/05/07 05:04:10;;;;;;;;;12.33;9.00;;;;;31.53;22.67;101887.56;5090713;27;45915;-84
2022/05/07 05:06:35;;;;;;;;;16.33;13.00;;;;;31.38;23.46;101861.81;5057659;28;45375;-84
2022/05/07 05:09:01;;;;;;;;;13.67;13.33;;;;;31.50;23.56;101870.38;5057304;28;45310;-84
2022/05/07 05:11:26;;;;;;;;;11.33;11.00;;;;;31.67;22.94;101899.72;5068250;28;45437;-83
2022/05/07 05:13:52;;;;;;;;;12.33;11.00;;;;;31.64;23.15;101893.44;5076020;28;45491;-83
2022/05/07 05:16:17;;;;;;;;;14.00;13.00;;;;;31.69;23.24;101895.03;5077644;28;45378;-85
2022/05/07 05:18:43;;;;;;;;;12.67;12.33;;;;;31.77;22.88;101895.50;5075436;28;45528;-83
2022/05/07 05:21:09;;;;;;;;;11.00;9.67;;;;;31.76;22.96;101886.41;5077312;27;46117;-84
2022/05/07 05:23:34;;;;;;;;;13.00;13.00;;;;;31.65;23.36;101886.09;5076715;27;45433;-85
2022/05/07 05:26:00;;;;;;;;;13.00;11.33;;;;;31.47;23.74;101885.13;5076848;27;45809;-83
2022/05/07 05:28:25;;;;;;;;;13.00;12.00;;;;;31.38;23.10;101858.19;5077341;27;46123;-86
2022/05/07 05:30:53;;;;;;;;;11.67;11.67;;;;;31.50;23.40;101868.53;5076594;28;46403;-86
2022/05/07 05:33:19;;;;;;;;;12.00;11.00;;;;;31.61;23.35;101877.09;5076711;27;45635;-86
2022/05/07 05:35:45;;;;;;;;;15.33;12.67;;;;;31.65;23.62;101880.59;5076477;28;45389;-83
2022/05/07 05:38:10;;;;;;;;;12.67;10.67;;;;;31.88;23.20;101895.84;5077930;27;45496;-88
2022/05/07 05:40:36;;;;;;;;;12.67;11.67;;;;;31.84;22.85;101882.38;5077036;27;45499;-87
2022/05/07 05:43:01;;;;;;;;;11.67;11.67;;;;;31.80;23.15;101854.19;5076942;27;45390;-87
2022/05/07 05:45:29;;;;;;;;;13.67;12.00;;;;;32.02;23.41;101875.88;5061330;27;45432;-87
2022/05/07 05:47:55;;;;;;;;;14.00;13.00;;;;;32.01;23.05;101868.66;5058048;28;45525;-88
2022/05/07 05:50:21;;;;;;;;;16.67;13.33;;;;;32.10;23.15;101884.59;5057706;28;45789;-87
2022/05/07 05:52:46;;;;;;;;;13.33;13.33;;;;;32.06;22.86;101872.00;5057767;28;45470;-88
2022/05/07 05:55:12;;;;;;;;;16.00;14.00;;;;;32.07;23.32;101857.31;5056581;28;45310;-87
2022/05/07 05:57:37;;;;;;;;;16.67;14.67;;;;;32.19;23.08;101877.75;5068770;28;45636;-86
2022/05/07 06:00:07;;;;;;;;;11.33;11.33;;;;;32.04;23.10;101853.84;5076502;28;47162;-86
2022/05/07 06:02:32;;;;;;;;;10.00;9.33;;;;;32.26;22.84;101875.56;5076215;28;45841;-87
2022/05/07 06:04:57;;;;;;;;;13.67;12.00;;;;;32.01;22.93;101846.69;5077717;28;45318;-87
2022/05/07 06:07:24;;;;;;;;;15.33;15.33;;;;;32.19;22.80;101871.38;5075169;28;45521;-84
2022/05/07 06:09:49;;;;;;;;;17.33;13.67;;;;;32.02;23.20;101858.53;5075454;28;46968;-82
2022/05/07 06:12:14;;;;;;;;;17.00;13.00;;;;;32.34;23.37;101898.00;5076452;27;45489;-82
2022/05/07 06:14:40;;;;;;;;;14.00;14.00;;;;;32.36;22.85;101879.56;5070851;27;45477;-82
2022/05/07 06:17:05;;;;;;;;;14.00;13.67;;;;;32.50;23.14;101898.03;5054787;28;45357;-81
2022/05/07 06:19:30;;;;;;;;;12.00;12.00;;;;;32.41;23.22;101891.19;5054567;28;48240;-81
2022/05/07 06:21:56;;;;;;;;;16.00;12.00;;;;;32.38;22.78;101885.00;5055172;28;47847;-85
2022/05/07 06:29:49;;;;;;;;;14.33;12.00;;;;;32.70;23.31;101902.44;5075931;28;45479;-82
2022/05/07 06:32:14;;;;;;;;;14.67;13.33;;;;;32.70;23.35;101893.31;5075693;27;45496;-82
2022/05/07 06:34:40;;;;;;;;;14.00;13.00;;;;;32.66;23.23;101898.94;5075991;27;45583;-82
2022/05/07 06:37:05;;;;;;;;;15.00;14.67;;;;;32.67;22.59;101886.06;5076095;27;45488;-82
2022/05/07 06:39:31;;;;;;;;;17.33;15.00;;;;;32.88;22.69;101900.50;5075935;27;45997;-82
2022/05/07 06:41:57;;;;;;;;;13.00;11.33;;;;;32.94;22.46;101907.50;5066513;28;45546;-83
2022/05/07 06:44:22;;;;;;;;;19.00;16.00;;;;;32.88;23.06;101902.38;5055912;28;45409;-84
2022/05/07 06:46:49;;;;;;;;;12.67;10.67;;;;;32.91;22.69;101896.69;5055677;28;45552;-83
2022/05/07 06:49:17;;;;;;;;;15.33;14.67;;;;;32.98;22.52;101920.09;5056020;28;45638;-83
2022/05/07 06:51:43;;;;;;;;;15.00;13.00;;;;;32.91;22.86;101929.66;5055229;28;45490;-82
2022/05/07 06:54:08;;;;;;;;;18.33;16.00;;;;;32.94;22.62;101929.47;5061529;28;45337;-83
2022/05/07 06:56:34;;;;;;;;;18.00;14.00;;;;;32.71;22.69;101897.84;5059072;28;45569;-87
2022/05/07 06:59:00;;;;;;;;;16.00;16.00;;;;;32.77;22.49;101925.84;5055754;28;46040;-85
2022/05/07 07:01:25;;;;;;;;;21.33;18.00;;;;;32.60;22.98;101915.78;5055286;28;45414;-86
2022/05/07 07:03:50;;;;;;;;;15.00;14.67;;;;;32.45;22.85;101887.28;5055767;28;45456;-86
2022/05/07 07:06:16;;;;;;;;;16.00;15.33;;;;;32.78;22.82;101929.47;5056061;28;45398;-86
2022/05/07 07:08:41;;;;;;;;;21.00;18.00;;;;;32.78;22.49;101938.59;5055482;28;52019;-85
2022/05/07 07:11:07;;;;;;;;;18.67;18.67;;;;;32.64;23.04;101932.97;5056191;28;45360;-86
2022/05/07 07:13:32;;;;;;;;;21.00;18.00;;;;;32.57;22.44;101953.53;5055592;28;45290;-85
2022/05/07 07:15:58;;;;;;;;;20.00;18.00;;;;;32.46;23.53;101940.38;5055531;28;45378;-84
2022/05/07 07:18:23;;;;;;;;;22.67;19.00;;;;;32.49;23.53;101938.34;5055157;28;45326;-85
2022/05/07 07:20:49;;;;;;;;;20.00;18.33;;;;;32.55;22.73;101928.00;5055354;28;45381;-86
2022/05/07 07:23:14;;;;;;;;;18.33;16.00;;;;;32.46;23.76;101935.78;5055587;28;45284;-85
2022/05/07 07:25:41;;;;;;;;;18.67;16.67;;;;;32.63;23.12;101931.19;5055409;28;45335;-85
2022/05/07 07:28:07;;;;;;;;;21.33;21.00;;;;;32.73;23.01;101948.06;5055425;28;45209;-86
2022/05/07 07:30:33;;;;;;;;;23.33;18.00;;;;;32.82;22.94;101944.81;5054835;28;45488;-86
2022/05/07 07:32:59;;;;;;;;;20.33;18.33;;;;;32.65;22.80;101934.75;5057514;28;45484;-86
2022/05/07 07:35:25;;;;;;;;;22.00;18.67;;;;;32.81;23.42;101954.94;5075987;27;45463;-79
2022/05/07 07:37:50;;;;;;;;;17.67;16.00;;;;;32.62;23.11;101912.94;5074117;28;47085;-85
2022/05/07 07:40:16;;;;;;;;;20.67;17.33;;;;;32.83;23.12;101925.50;5070307;27;45459;-87
2022/05/07 07:42:41;;;;;;;;;19.00;16.00;;;;;33.13;23.06;101935.69;5057181;28;45386;-84
2022/05/07 07:47:56;;;;;;;;;19.00;18.33;;;;;32.94;22.93;101913.91;5055909;28;45495;-87
2022/05/07 07:50:26;;;;;;;;;16.00;13.33;;;;;32.94;22.82;101910.25;5054203;28;45299;-85
2022/05/07 07:52:56;;;;;;;;;17.33;15.67;;;;;32.93;22.90;101903.00;5053950;28;45467;-85
2022/05/07 07:55:22;;;;;;;;;14.00;12.67;;;;;33.23;22.36;101946.22;5037487;28;45524;-86
2022/05/07 07:57:48;;;;;;;;;18.00;16.67;;;;;33.34;22.36;101943.72;5072256;28;47825;-88
2022/05/07 08:00:13;;;;;;;;;17.00;15.00;;;;;33.24;22.54;101917.75;5062805;28;45805;-80
2022/05/07 08:03:12;;;;;;;;;17.33;16.67;;;;;33.38;22.41;101949.94;5074668;27;45383;-81
2022/05/07 08:05:37;;;;;;;;;15.67;15.00;;;;;33.27;22.78;101936.81;5085204;27;45613;-81
2022/05/07 08:13:37;;;;;;;;;20.00;15.00;;;;;33.46;22.82;101950.34;5078047;28;45381;-81
2022/05/07 08:16:04;;;;;;;;;15.67;15.00;;;;;33.48;22.75;101952.03;5067911;28;45724;-82
2022/05/07 08:18:30;;;;;;;;;15.00;14.33;;;;;33.22;22.81;101931.56;5064493;27;46454;-85
2022/05/07 08:20:56;;;;;;;;;17.67;14.00;;;;;33.33;23.03;101926.34;5059468;28;45584;-80
2022/05/07 08:23:22;;;;;;;;;14.33;13.00;;;;;33.45;23.09;101946.72;5058072;28;45544;-82
2022/05/07 08:25:48;;;;;;;;;17.00;14.33;;;;;33.39;22.65;101937.94;5066062;28;45390;-81
2022/05/07 08:28:13;;;;;;;;;17.67;13.33;;;;;33.61;22.55;101934.81;5067875;28;45463;-81
2022/05/07 08:30:39;;;;;;;;;13.00;12.67;;;;;33.54;22.71;101930.66;5053255;28;45473;-80
2022/05/07 08:33:05;;;;;;;;;15.67;14.33;;;;;33.44;23.16;101931.19;5066358;27;45442;-80
2022/05/07 08:35:31;;;;;;;;;15.67;15.67;;;;;33.46;23.09;101926.50;5069278;28;45514;-80
2022/05/07 08:37:56;;;;;;;;;14.67;12.67;;;;;33.68;22.87;101922.44;5065373;27;45437;-79
2022/05/07 08:40:22;;;;;;;;;15.33;15.00;;;;;33.83;22.73;101932.56;5071766;28;45921;-80
2022/05/07 08:42:48;;;;;;;;;13.00;13.00;;;;;33.78;22.35;101931.06;5062520;28;45676;-80
2022/05/07 08:45:15;;;;;;;;;12.67;12.67;;;;;33.89;22.48;101933.16;5066246;28;45398;-80
2022/05/07 08:47:42;;;;;;;;;13.00;11.33;;;;;34.07;22.42;101940.28;5062871;28;46588;-80
2022/05/07 08:50:09;;;;;;;;;10.00;9.00;;;;;33.98;22.35;101927.97;5057170;28;45989;-79
2022/05/07 08:52:39;;;;;;;;;13.00;11.67;;;;;34.09;22.31;101935.56;5057482;28;45851;-79
2022/05/07 08:55:04;;;;;;;;;10.33;10.00;;;;;34.12;22.29;101918.88;5065514;27;45484;-79
2022/05/07 08:57:30;;;;;;;;;14.00;12.33;;;;;34.28;22.23;101929.84;5065032;28;45581;-82
2022/05/07 08:59:56;;;;;;;;;15.00;13.00;;;;;34.10;22.20;101923.56;5061208;28;45503;-83
2022/05/07 09:02:21;;;;;;;;;14.67;14.33;;;;;34.10;22.36;101937.34;5061473;27;45584;-83
2022/05/07 09:05:15;;;;;;;;;15.33;13.00;;;;;34.09;22.44;101941.06;5059088;28;45675;-85
2022/05/07 09:07:54;;;;;;;;;17.00;15.00;;;;;34.31;22.04;101932.38;5056497;28;45472;-79
2022/05/07 09:10:23;;;;;;;;;20.00;18.33;;;;;34.41;21.92;101916.16;5061372;28;45427;-80
2022/05/07 09:12:49;;;;;;;;;17.33;14.67;;;;;34.44;22.47;101913.19;5062560;28;45438;-81
2022/05/07 09:15:14;;;;;;;;;19.33;15.67;;;;;34.15;22.25;101876.47;5062004;28;45600;-80
2022/05/07 09:17:40;;;;;;;;;19.00;17.00;;;;;34.31;22.13;101901.22;5066699;27;46146;-78
2022/05/07 09:20:18;;;;;;;;;17.00;17.00;;;;;34.46;22.00;101916.75;5060167;27;45555;-82
2022/05/07 09:22:56;;;;;;;;;16.67;15.00;;;;;34.59;22.41;101935.28;5065376;28;45505;-78
2022/05/07 09:25:26;;;;;;;;;19.67;15.33;;;;;34.55;21.69;101912.53;5061536;28;45720;-76
2022/05/07 09:27:56;;;;;;;;;15.33;13.67;;;;;34.49;21.82;101922.06;5055921;28;46402;-77
2022/05/07 09:30:27;;;;;;;;;17.33;14.67;;;;;34.41;22.63;101929.94;5055792;28;45469;-77
2022/05/07 09:32:55;;;;;;;;;13.00;13.00;;;;;34.30;22.39;101911.31;5056382;28;45309;-77
2022/05/07 09:38:09;;;;;;;;;18.67;17.67;;;;;34.60;22.03;101912.22;5056358;28;45425;-77
2022/05/07 09:40:40;;;;;;;;;16.67;13.67;;;;;34.69;22.19;101937.31;5056282;28;45536;-77
2022/05/07 09:43:08;;;;;;;;;18.00;16.67;;;;;34.63;21.66;101929.44;5056366;28;45407;-77
2022/05/07 09:45:35;;;;;;;;;15.33;14.33;;;;;34.62;22.17;101918.53;5056653;28;45541;-77
2022/05/07 09:48:01;;;;;;;;;16.00;13.33;;;;;34.94;21.82;101902.66;5056375;28;46553;-77
2022/05/07 09:58:41;;;;;;;;;18.00;16.00;;;;;35.25;21.59;101922.69;5054075;28;45514;-77
2022/05/07 10:01:21;;;;;;;;;13.00;13.00;;;;;35.47;21.55;101922.16;5036876;28;45917;-78
2022/05/07 10:04:09;;;;;;;;;14.67;14.67;;;;;35.44;21.62;101910.41;5054140;28;45385;-77
2022/05/07 10:07:07;;;;;;;;;14.67;14.33;;;;;35.40;21.54;101918.00;5037156;28;45586;-77
2022/05/07 10:09:37;;;;;;;;;15.00;15.00;;;;;35.51;21.65;101915.44;5053575;28;46105;-77
2022/05/07 10:12:03;;;;;;;;;14.67;13.67;;;;;35.81;21.12;101919.84;5053689;28;45366;-77
2022/05/07 10:14:31;;;;;;;;;15.00;13.67;;;;;35.99;21.12;101903.84;5053778;28;45305;-78
2022/05/07 10:17:07;;;;;;;;;20.00;14.33;;;;;35.92;21.14;101901.63;5053723;28;45248;-77
2022/05/07 10:19:36;;;;;;;;;20.00;15.67;;;;;35.92;20.93;101915.44;5065309;28;45474;-77
2022/05/07 10:22:02;;;;;;;;;20.33;18.67;;;;;35.79;21.33;101913.47;5053546;28;45340;-78
2022/05/07 10:24:27;;;;;;;;;14.33;14.33;;;;;36.04;20.95;101898.00;5053564;28;45495;-77
2022/05/07 10:26:53;;;;;;;;;19.33;14.33;;;;;36.09;20.88;101900.41;5069979;28;45441;-77
2022/05/07 10:29:26;;;;;;;;;17.00;17.00;;;;;36.23;20.88;101909.50;5068200;28;46098;-77
2022/05/07 10:32:01;;;;;;;;;19.00;16.33;;;;;36.26;20.90;101894.56;5053462;28;45437;-77
2022/05/07 10:34:27;;;;;;;;;17.67;15.67;;;;;36.26;21.02;101897.34;5054619;28;45405;-77
2022/05/07 10:37:00;;;;;;;;;15.00;15.00;;;;;36.29;21.13;101897.09;5054391;28;45540;-77
2022/05/07 10:39:26;;;;;;;;;14.67;13.67;;;;;36.56;20.91;101902.53;5055424;28;46534;-77
2022/05/07 10:41:51;;;;;;;;;17.67;13.00;;;;;36.77;20.25;101909.34;5055690;28;45428;-77
2022/05/07 10:44:32;;;;;;;;;18.33;14.67;;;;;36.78;20.51;101900.03;5055700;28;45334;-77
2022/05/07 10:47:09;;;;;;;;;15.67;15.67;;;;;36.76;20.54;101900.16;5055561;28;45475;-77
2022/05/07 10:49:35;;;;;;;;;13.33;12.33;;;;;36.75;20.19;101895.63;5055305;28;45558;-77
2022/05/07 10:52:04;;;;;;;;;20.00;16.00;;;;;36.66;20.11;101912.91;5055316;28;45356;-77
2022/05/07 10:54:29;;;;;;;;;16.00;13.67;;;;;36.62;20.43;101909.47;5070151;28;45348;-77
2022/05/07 10:56:58;;;;;;;;;17.00;15.33;;;;;36.71;20.16;101897.75;5054955;28;51977;-77
2022/05/07 10:59:29;;;;;;;;;17.00;17.00;;;;;36.71;20.14;101913.44;5055392;28;45424;-77
2022/05/07 11:02:10;;;;;;;;;19.00;16.67;;;;;36.69;20.50;101904.38;5055566;28;45473;-77
2022/05/07 11:04:43;;;;;;;;;18.00;18.00;;;;;36.62;20.58;101889.25;5055623;28;45488;-77
2022/05/07 11:07:09;;;;;;;;;17.33;17.33;;;;;36.55;20.49;101886.91;5054709;28;45376;-77
2022/05/07 11:09:37;;;;;;;;;15.33;12.67;;;;;36.61;20.55;101884.72;5055001;28;46056;-77
2022/05/07 11:12:02;;;;;;;;;17.33;16.33;;;;;36.32;20.36;101854.59;5055179;28;45445;-77
2022/05/07 11:14:34;;;;;;;;;15.33;15.33;;;;;36.50;20.49;101893.78;5053702;28;45464;-77
2022/05/07 11:17:03;;;;;;;;;18.00;18.00;;;;;36.48;20.76;101882.84;5055115;28;45537;-77
2022/05/07 11:19:33;;;;;;;;;21.00;19.67;;;;;36.63;20.32;101893.78;5064459;28;45531;-76
2022/05/07 11:22:00;;;;;;;;;15.33;15.33;;;;;36.54;20.46;101898.09;5075004;27;45504;-78
2022/05/07 11:24:27;;;;;;;;;16.67;16.00;;;;;36.66;21.09;101880.59;5075194;27;45347;-77
2022/05/07 11:26:55;;;;;;;;;16.67;16.33;;;;;36.85;20.33;101895.84;5074016;28;45640;-77
2022/05/07 11:29:21;;;;;;;;;19.67;17.33;;;;;36.73;20.75;101883.81;5074852;27;45707;-77
2022/05/07 11:32:03;;;;;;;;;14.67;13.33;;;;;36.81;20.53;101894.31;5074014;28;45568;-76
2022/05/07 11:34:34;;;;;;;;;14.00;14.00;;;;;36.66;20.16;101886.13;5073712;28;45396;-77
2022/05/07 11:37:16;;;;;;;;;15.67;15.67;;;;;36.70;20.60;101893.22;5075053;27;45628;-76
2022/05/07 11:39:56;;;;;;;;;16.67;14.00;;;;;36.79;20.24;101882.50;5073853;27;45356;-77
2022/05/07 11:42:44;;;;;;;;;13.33;13.33;;;;;36.68;20.26;101875.88;5074675;27;45302;-77
2022/05/07 11:45:31;;;;;;;;;13.33;13.33;;;;;36.71;20.71;101863.66;5073585;28;45483;-77
2022/05/07 11:47:58;;;;;;;;;14.33;13.67;;;;;36.84;20.01;101892.22;5075001;27;45601;-77
2022/05/07 11:50:28;;;;;;;;;15.33;15.33;;;;;36.54;20.13;101881.50;5074073;27;45444;-77